Time;durP1;ratioP1;P1;durP2;ratioP2;P2;SDS_P1;SDS_P2;PMS_P1;PMS_P2;Temp;Humidity;BMP_temperature;BMP_pressure;BME280_temperature;BME280_humidity;BME280_pressure;Samples;Min_cycle;Max_cycle;Signal;HPM_P1;HPM_P2
2022/06/09 00:00:35;;;;;;;6.50;3.70;;;;;;;16.00;75.11;94236.53;5131238;27;20027;-68
2022/06/09 00:03:06;;;;;;;5.47;3.97;;;;;;;15.98;75.16;94236.69;5130829;27;20030;-67
2022/06/09 00:05:31;;;;;;;4.70;4.10;;;;;;;16.01;75.55;94236.31;5113887;27;20031;-68
2022/06/09 00:07:57;;;;;;;5.22;3.63;;;;;;;15.97;75.45;94235.06;5132063;27;20033;-67
2022/06/09 00:10:26;;;;;;;7.07;3.95;;;;;;;15.87;75.28;94218.75;5130827;27;20035;-68
2022/06/09 00:12:52;;;;;;;6.35;4.05;;;;;;;15.85;75.23;94220.72;5113962;28;20023;-67
2022/06/09 00:15:17;;;;;;;7.65;4.00;;;;;;;15.79;75.29;94229.28;5130731;27;20031;-68
2022/06/09 00:17:43;;;;;;;5.15;4.38;;;;;;;15.71;75.56;94229.31;5113436;27;20045;-68
2022/06/09 00:20:09;;;;;;;5.50;3.92;;;;;;;15.73;75.38;94237.81;5132354;27;20031;-68
2022/06/09 00:22:34;;;;;;;7.07;4.38;;;;;;;15.72;75.50;94228.34;5131826;27;20027;-68
2022/06/09 00:25:00;;;;;;;4.80;4.10;;;;;;;15.74;75.37;94231.59;5131775;27;20034;-68
2022/06/09 00:27:25;;;;;;;4.88;3.83;;;;;;;15.77;75.36;94231.28;5130447;28;20038;-67
2022/06/09 00:29:51;;;;;;;7.28;4.15;;;;;;;15.72;75.16;94221.31;5130867;28;20046;-67
2022/06/09 00:32:16;;;;;;;6.68;3.90;;;;;;;15.77;75.04;94221.59;5113402;28;20447;-68
2022/06/09 00:34:42;;;;;;;6.65;4.00;;;;;;;15.76;75.03;94227.00;5113602;28;20409;-68
2022/06/09 00:37:07;;;;;;;5.72;4.00;;;;;;;15.80;74.88;94230.91;5131999;27;20061;-67
2022/06/09 00:39:33;;;;;;;7.03;4.18;;;;;;;15.77;74.93;94231.28;5132020;27;20088;-67
2022/06/09 00:41:58;;;;;;;6.43;4.20;;;;;;;15.82;75.03;94223.69;5117549;27;20564;-67
2022/06/09 00:44:26;;;;;;;7.70;3.95;;;;;;;15.82;75.38;94221.91;5115725;28;20032;-68
2022/06/09 00:47:14;;;;;;;4.75;3.90;;;;;;;15.69;75.39;94216.41;5114008;28;20118;-68
2022/06/09 00:49:58;;;;;;;5.95;4.00;;;;;;;15.68;75.03;94212.16;5114230;28;20082;-68
2022/06/09 00:52:24;;;;;;;5.28;4.30;;;;;;;15.61;75.40;94214.63;5113925;28;20055;-68
2022/06/09 00:54:52;;;;;;;4.45;4.05;;;;;;;15.64;75.67;94211.66;5114190;28;20035;-68
2022/06/09 00:57:20;;;;;;;5.88;4.40;;;;;;;15.67;75.89;94214.91;5096999;28;20034;-68
2022/06/09 00:59:47;;;;;;;4.65;3.88;;;;;;;15.64;76.18;94210.84;5097196;28;20046;-68
2022/06/09 01:02:15;;;;;;;4.80;4.30;;;;;;;15.69;76.16;94213.78;5113752;28;20100;-68
2022/06/09 01:04:41;;;;;;;5.70;4.45;;;;;;;15.62;76.22;94203.16;5097209;28;20481;-68
2022/06/09 01:07:15;;;;;;;4.88;4.35;;;;;;;15.63;76.23;94210.03;5113574;28;20024;-68
2022/06/09 01:09:40;;;;;;;6.88;4.50;;;;;;;15.64;76.33;94205.59;5113743;28;20440;-68
2022/06/09 01:12:26;;;;;;;4.95;4.18;;;;;;;15.70;76.44;94210.19;5113887;28;20045;-68
2022/06/09 01:14:54;;;;;;;6.40;4.38;;;;;;;15.69;77.13;94211.19;5096451;28;20096;-68
2022/06/09 01:17:33;;;;;;;5.68;4.50;;;;;;;15.63;77.00;94204.00;5113416;28;20028;-67
2022/06/09 01:20:12;;;;;;;7.85;4.55;;;;;;;15.68;76.97;94211.31;5097313;28;20037;-68
2022/06/09 01:22:49;;;;;;;6.65;4.00;;;;;;;15.69;77.34;94219.03;5113375;28;20030;-67
2022/06/09 01:25:20;;;;;;;4.82;4.10;;;;;;;15.76;77.51;94214.72;5115058;28;20188;-68
2022/06/09 01:28:01;;;;;;;5.03;4.32;;;;;;;15.79;77.14;94217.00;5113224;28;20024;-68
2022/06/09 01:30:44;;;;;;;5.05;3.97;;;;;;;15.81;77.23;94216.81;5114501;28;20493;-68
2022/06/09 01:33:33;;;;;;;7.70;4.85;;;;;;;15.83;76.90;94207.00;5113239;28;20028;-68
2022/06/09 01:36:25;;;;;;;4.60;4.10;;;;;;;15.81;76.07;94191.44;5113367;28;20030;-68
2022/06/09 01:38:52;;;;;;;5.47;3.90;;;;;;;15.82;75.64;94202.72;5113220;28;20119;-68
2022/06/09 01:41:18;;;;;;;5.80;4.50;;;;;;;15.87;75.67;94205.66;5105095;27;20132;-68
2022/06/09 01:43:44;;;;;;;5.97;4.40;;;;;;;15.88;75.38;94194.22;5133499;27;20043;-68
2022/06/09 01:46:13;;;;;;;5.85;4.13;;;;;;;15.85;75.14;94191.91;5099262;27;20034;-68
2022/06/09 01:48:38;;;;;;;5.10;4.50;;;;;;;15.76;75.00;94190.34;5133556;27;20043;-68
2022/06/09 01:51:14;;;;;;;6.10;4.45;;;;;;;15.72;75.06;94184.66;5134677;27;20107;-68
2022/06/09 01:53:45;;;;;;;9.73;4.35;;;;;;;15.72;74.99;94186.44;5133190;27;20047;-68
2022/06/09 01:56:27;;;;;;;8.55;4.15;;;;;;;15.71;75.02;94192.66;5099699;27;20033;-68
2022/06/09 01:58:55;;;;;;;5.25;4.28;;;;;;;15.64;75.16;94190.72;5100667;27;20035;-68
2022/06/09 02:01:23;;;;;;;8.50;4.13;;;;;;;15.60;75.18;94183.38;5116426;27;20031;-68
2022/06/09 02:03:48;;;;;;;7.57;4.18;;;;;;;15.58;75.07;94186.16;5133074;27;20055;-67
2022/06/09 02:06:14;;;;;;;6.03;4.25;;;;;;;15.50;75.26;94191.44;5116018;27;20031;-68
2022/06/09 02:08:40;;;;;;;5.40;4.32;;;;;;;15.53;75.19;94188.50;5133035;27;20513;-68
2022/06/09 02:11:10;;;;;;;7.82;4.45;;;;;;;15.48;75.29;94190.81;5115944;27;20031;-68
2022/06/09 02:13:41;;;;;;;6.13;4.25;;;;;;;15.47;75.59;94189.19;5116430;27;20392;-67
2022/06/09 02:16:09;;;;;;;5.78;4.13;;;;;;;15.53;75.39;94191.09;5116500;27;20055;-68
2022/06/09 02:18:40;;;;;;;5.57;4.40;;;;;;;15.58;75.38;94191.41;5133000;27;20031;-67
2022/06/09 02:21:15;;;;;;;8.57;4.28;;;;;;;15.62;75.31;94195.28;5115936;27;20118;-67
2022/06/09 02:23:41;;;;;;;5.13;4.10;;;;;;;15.69;75.19;94197.28;5116059;27;20031;-68
2022/06/09 02:26:06;;;;;;;5.18;4.35;;;;;;;15.65;75.11;94197.56;5132760;27;20394;-68
2022/06/09 02:28:33;;;;;;;5.63;4.25;;;;;;;15.67;75.34;94199.22;5132629;27;20532;-67
2022/06/09 02:30:59;;;;;;;7.15;4.20;;;;;;;15.68;75.56;94206.91;5115716;27;20038;-68
2022/06/09 02:33:24;;;;;;;4.78;4.10;;;;;;;15.70;75.55;94207.56;5115426;27;20408;-68
2022/06/09 02:35:50;;;;;;;7.03;4.47;;;;;;;15.61;75.21;94190.25;5134051;27;20054;-68
2022/06/09 02:38:16;;;;;;;5.82;4.25;;;;;;;15.69;75.03;94207.75;5132384;27;20464;-68
2022/06/09 02:40:41;;;;;;;8.13;4.13;;;;;;;15.72;75.50;94212.63;5111788;28;20030;-69
2022/06/09 02:43:06;;;;;;;5.68;3.70;;;;;;;15.74;75.72;94211.47;5113010;28;20433;-68
2022/06/09 02:45:33;;;;;;;5.15;4.60;;;;;;;15.73;75.86;94211.63;5094740;28;20413;-68
2022/06/09 02:47:59;;;;;;;6.55;4.40;;;;;;;15.73;75.81;94209.03;5112795;28;20027;-68
2022/06/09 02:50:25;;;;;;;8.30;4.13;;;;;;;15.76;75.83;94208.66;5112958;28;20042;-68
2022/06/09 02:52:50;;;;;;;4.93;4.13;;;;;;;15.74;75.65;94208.88;5111804;28;20047;-68
2022/06/09 02:55:16;;;;;;;7.80;4.32;;;;;;;15.74;75.74;94202.78;5111829;28;20031;-68
2022/06/09 02:57:41;;;;;;;5.32;4.18;;;;;;;15.78;75.52;94211.94;5111503;28;20023;-68
2022/06/09 03:00:09;;;;;;;5.28;4.30;;;;;;;15.72;75.51;94205.59;5113175;28;20035;-68
2022/06/09 03:02:34;;;;;;;7.78;4.88;;;;;;;15.74;75.37;94205.41;5094539;28;20027;-68
2022/06/09 03:05:00;;;;;;;7.05;4.28;;;;;;;15.73;75.52;94209.03;5094058;28;20454;-68
2022/06/09 03:07:26;;;;;;;8.13;4.25;;;;;;;15.75;75.17;94204.44;5112422;28;20493;-68
2022/06/09 03:09:53;;;;;;;5.30;4.13;;;;;;;15.70;75.47;94204.13;5094794;28;20039;-67
2022/06/09 03:12:19;;;;;;;5.28;4.75;;;;;;;15.69;74.75;94202.50;5111278;28;20620;-67
2022/06/09 03:14:45;;;;;;;10.80;4.88;;;;;;;15.66;74.65;94206.25;5111376;28;20046;-68
2022/06/09 03:17:10;;;;;;;7.20;4.50;;;;;;;15.54;75.06;94205.81;5111257;28;20019;-68
2022/06/09 03:19:36;;;;;;;7.03;4.40;;;;;;;15.55;75.16;94220.53;5111335;28;20421;-68
2022/06/09 03:22:02;;;;;;;4.95;4.45;;;;;;;15.55;75.40;94207.47;5112267;28;20455;-68
2022/06/09 03:24:27;;;;;;;7.90;4.75;;;;;;;15.51;75.36;94210.59;5094120;28;20047;-68
2022/06/09 03:26:52;;;;;;;5.05;4.53;;;;;;;15.40;75.35;94203.94;5110857;28;20501;-68
2022/06/09 03:29:19;;;;;;;7.30;5.43;;;;;;;15.42;75.33;94212.44;5112423;28;20477;-68
2022/06/09 03:31:49;;;;;;;7.35;4.57;;;;;;;15.49;75.39;94209.94;5110937;28;20084;-68
2022/06/09 03:34:14;;;;;;;8.18;5.10;;;;;;;15.64;75.09;94211.66;5094477;28;20590;-68
2022/06/09 03:36:40;;;;;;;6.75;4.70;;;;;;;15.78;75.13;94217.19;5111929;28;20032;-68
2022/06/09 03:39:05;;;;;;;5.18;4.53;;;;;;;15.73;74.69;94199.34;5112158;28;20108;-68
2022/06/09 03:41:31;;;;;;;5.22;4.47;;;;;;;15.88;74.96;94209.91;5122597;27;20031;-68
2022/06/09 03:43:56;;;;;;;7.20;4.60;;;;;;;15.97;74.50;94210.69;5131288;27;20027;-68
2022/06/09 03:46:21;;;;;;;8.55;5.03;;;;;;;16.02;74.29;94217.03;5131025;27;20027;-68
2022/06/09 03:48:47;;;;;;;6.55;4.72;;;;;;;15.99;74.24;94192.97;5131313;27;20540;-68
2022/06/09 03:51:12;;;;;;;7.28;4.72;;;;;;;16.10;74.24;94216.13;5131208;27;20027;-67
2022/06/09 03:53:40;;;;;;;5.72;4.60;;;;;;;16.15;73.77;94215.59;5131106;27;20055;-68
2022/06/09 03:56:10;;;;;;;5.95;4.45;;;;;;;16.15;73.89;94210.38;5110234;27;20496;-68
2022/06/09 03:58:36;;;;;;;7.88;5.18;;;;;;;16.21;73.91;94207.03;5092837;28;20032;-68
2022/06/09 04:01:01;;;;;;;6.00;5.00;;;;;;;16.22;73.63;94204.25;5110346;28;20394;-68
2022/06/09 04:03:26;;;;;;;7.40;4.93;;;;;;;16.25;73.46;94203.09;5110356;28;20041;-68
2022/06/09 04:05:52;;;;;;;8.30;4.55;;;;;;;16.31;73.06;94210.25;5111253;27;20032;-68
2022/06/09 04:08:17;;;;;;;6.63;4.78;;;;;;;16.28;73.41;94200.13;5121874;27;20201;-67
2022/06/09 04:10:43;;;;;;;5.78;4.95;;;;;;;16.41;73.42;94205.59;5110014;28;20507;-68
2022/06/09 04:13:08;;;;;;;7.10;5.13;;;;;;;16.44;73.71;94199.97;5127817;27;20019;-68
2022/06/09 04:15:34;;;;;;;9.02;5.25;;;;;;;16.47;74.06;94206.69;5128488;27;20028;-68
2022/06/09 04:17:59;;;;;;;8.73;6.35;;;;;;;16.53;74.17;94203.34;5125484;27;20096;-68
2022/06/09 04:20:25;;;;;;;7.93;6.78;;;;;;;16.63;74.24;94211.78;5110248;28;20042;-68
2022/06/09 04:22:51;;;;;;;10.73;7.05;;;;;;;16.72;73.80;94209.88;5102295;28;20035;-68
2022/06/09 04:25:17;;;;;;;10.18;7.53;;;;;;;16.80;74.22;94207.22;5129288;27;20090;-68
2022/06/09 04:27:43;;;;;;;13.25;7.68;;;;;;;16.75;74.37;94193.78;5108635;27;20696;-68
2022/06/09 04:30:09;;;;;;;9.18;7.90;;;;;;;16.92;73.61;94211.00;5117816;28;20032;-68
2022/06/09 04:32:34;;;;;;;8.07;7.30;;;;;;;16.98;72.83;94210.28;5110464;28;20035;-68
2022/06/09 04:35:00;;;;;;;8.48;7.57;;;;;;;17.04;73.32;94210.56;5110958;28;20032;-68
2022/06/09 04:37:59;;;;;;;9.38;7.85;;;;;;;17.04;73.87;94200.06;5120219;28;20035;-68
2022/06/09 04:40:11;;;;;;;10.05;8.18;;;;;;;17.16;73.85;94199.44;5130281;28;20115;-68
2022/06/09 04:42:36;;;;;;;8.95;8.05;;;;;;;17.18;72.99;94202.66;5110232;27;20489;-68
2022/06/09 04:45:02;;;;;;;8.52;7.53;;;;;;;17.24;73.37;94206.38;5122775;28;20038;-68
2022/06/09 04:47:28;;;;;;;9.93;8.23;;;;;;;17.31;73.04;94207.28;5127478;27;20221;-68
2022/06/09 04:49:53;;;;;;;9.20;7.97;;;;;;;17.35;73.14;94208.53;5141108;27;20117;-68
2022/06/09 04:52:19;;;;;;;8.82;7.57;;;;;;;17.39;72.65;94204.56;5142529;27;20785;-67
2022/06/09 04:54:44;;;;;;;9.48;7.55;;;;;;;17.49;72.42;94206.06;5110112;27;20567;-68
2022/06/09 04:57:10;;;;;;;14.60;8.50;;;;;;;17.50;72.08;94205.91;5116662;28;20405;-67
2022/06/09 04:59:36;;;;;;;9.82;8.68;;;;;;;17.48;72.25;94210.53;5126247;28;20115;-69
2022/06/09 05:02:01;;;;;;;10.77;8.93;;;;;;;17.48;72.29;94205.28;5127847;27;20385;-68
2022/06/09 05:04:26;;;;;;;10.25;9.10;;;;;;;17.51;72.10;94209.34;5113716;28;20058;-68
2022/06/09 05:06:52;;;;;;;12.27;9.20;;;;;;;17.54;71.97;94211.59;5130267;27;20462;-68
2022/06/09 05:09:17;;;;;;;9.85;8.80;;;;;;;17.55;71.69;94207.97;5131135;27;20393;-68
2022/06/09 05:11:43;;;;;;;10.50;9.23;;;;;;;17.50;71.07;94207.72;5129346;28;20035;-68
2022/06/09 05:14:09;;;;;;;10.23;9.23;;;;;;;17.70;71.39;94211.38;5126330;28;20101;-68
2022/06/09 05:16:35;;;;;;;11.65;10.32;;;;;;;17.85;71.20;94214.78;5093426;28;20031;-68
2022/06/09 05:19:00;;;;;;;11.15;9.95;;;;;;;18.00;70.88;94200.81;5095242;28;20035;-68
2022/06/09 05:21:25;;;;;;;13.07;9.75;;;;;;;18.23;69.81;94201.44;5129711;27;20023;-68
2022/06/09 05:23:51;;;;;;;12.13;9.90;;;;;;;18.39;69.52;94200.38;5117464;27;20034;-68
2022/06/09 05:26:16;;;;;;;10.90;9.50;;;;;;;18.54;69.93;94200.28;5135794;27;20027;-68
2022/06/09 05:28:42;;;;;;;11.60;9.27;;;;;;;18.71;68.43;94201.59;5116297;27;20046;-68
2022/06/09 05:31:07;;;;;;;11.23;9.35;;;;;;;18.81;67.47;94201.31;5151118;27;20412;-68
2022/06/09 05:33:33;;;;;;;12.75;9.20;;;;;;;18.91;67.56;94206.22;5154602;27;20031;-68
2022/06/09 05:35:58;;;;;;;9.73;8.73;;;;;;;19.04;66.85;94197.59;5153959;27;20015;-68
2022/06/09 05:46:40;;;;;;;9.85;8.45;;;;;;;19.36;65.52;94198.78;5136998;27;20069;-68
2022/06/09 05:49:06;;;;;;;9.45;8.55;;;;;;;19.30;64.79;94195.09;5154696;27;20026;-68
2022/06/09 05:51:31;;;;;;;9.40;8.50;;;;;;;19.47;65.91;94205.31;5154755;27;20067;-69
2022/06/09 05:53:57;;;;;;;11.00;8.55;;;;;;;19.50;64.01;94200.47;5152994;27;20031;-68
2022/06/09 05:56:23;;;;;;;9.20;7.75;;;;;;;19.52;63.46;94197.63;5149712;27;20408;-68
2022/06/09 05:58:48;;;;;;;10.18;8.30;;;;;;;19.58;63.09;94196.84;5132884;27;20023;-68
2022/06/09 06:01:14;;;;;;;11.13;9.35;;;;;;;19.59;62.86;94193.22;5126443;27;20031;-68
2022/06/09 06:03:40;;;;;;;12.82;9.90;;;;;;;19.65;64.38;94197.69;5129520;27;20037;-68
2022/06/09 06:08:49;;;;;;;11.50;10.30;;;;;;;19.41;64.29;94199.81;5104153;28;20089;-68
2022/06/09 06:11:15;;;;;;;13.02;10.10;;;;;;;19.27;64.65;94195.50;5134005;27;20043;-68
2022/06/09 06:13:41;;;;;;;11.40;10.07;;;;;;;19.17;65.65;94190.59;5134272;27;20374;-68
2022/06/09 06:16:07;;;;;;;12.13;10.77;;;;;;;18.96;66.62;94188.03;5134182;27;20023;-68
2022/06/09 06:18:32;;;;;;;13.05;10.55;;;;;;;18.87;66.83;94194.47;5123542;27;20087;-68
2022/06/09 06:20:58;;;;;;;11.82;10.68;;;;;;;18.85;67.31;94189.38;5153669;27;20499;-68
2022/06/09 06:23:23;;;;;;;12.10;10.40;;;;;;;18.96;67.31;94185.41;5124986;27;20035;-68
2022/06/09 06:25:49;;;;;;;10.48;9.35;;;;;;;19.20;65.66;94187.56;5112847;27;20035;-68
2022/06/09 06:28:14;;;;;;;10.57;9.45;;;;;;;19.18;65.25;94179.03;5113113;28;20082;-68
2022/06/09 06:30:40;;;;;;;9.90;8.50;;;;;;;19.22;65.21;94179.47;5095196;28;20031;-68
2022/06/09 06:33:05;;;;;;;12.20;8.40;;;;;;;19.29;64.90;94177.69;5113187;28;20024;-68
2022/06/09 06:35:31;;;;;;;9.27;8.10;;;;;;;19.42;64.50;94176.94;5129078;27;20050;-68
2022/06/09 06:37:56;;;;;;;9.23;8.13;;;;;;;19.46;61.83;94172.09;5125504;27;20023;-68
2022/06/09 06:40:22;;;;;;;9.60;8.70;;;;;;;19.51;62.65;94170.47;5140681;27;20027;-68
2022/06/09 06:42:47;;;;;;;9.80;8.90;;;;;;;19.53;62.54;94173.75;5117859;27;20104;-68
2022/06/09 06:45:13;;;;;;;9.82;7.85;;;;;;;19.49;61.83;94171.69;5128590;27;20035;-68
2022/06/09 06:47:39;;;;;;;9.25;8.23;;;;;;;19.47;62.78;94171.06;5105620;27;20459;-69
2022/06/09 08:12:12;;;;;;;10.83;7.13;;;;;;;22.00;57.18;94126.72;3000673;28;1317784;-71
2022/06/09 08:14:38;;;;;;;7.90;7.10;;;;;;;21.99;56.23;94120.63;5052135;28;20033;-72
2022/06/09 08:17:05;;;;;;;7.28;6.53;;;;;;;22.21;56.54;94123.75;5053366;28;20025;-72
2022/06/09 08:19:30;;;;;;;7.72;6.93;;;;;;;22.38;55.82;94125.88;5053455;28;20029;-72
2022/06/09 08:21:56;;;;;;;11.23;6.55;;;;;;;22.48;54.97;94123.53;5053288;28;20387;-72
2022/06/09 08:24:21;;;;;;;9.32;7.38;;;;;;;22.40;53.52;94119.34;5053069;28;20029;-72
2022/06/09 08:26:48;;;;;;;8.52;7.70;;;;;;;22.38;53.87;94117.94;5018947;28;20478;-72
2022/06/09 08:29:13;;;;;;;6.85;6.25;;;;;;;22.45;56.51;94119.47;5052115;28;20497;-72
2022/06/09 08:31:39;;;;;;;9.35;6.88;;;;;;;22.66;55.61;94128.06;5053019;28;20025;-73
2022/06/09 08:34:04;;;;;;;7.95;7.15;;;;;;;22.73;53.15;94115.56;5002496;28;20048;-71
2022/06/09 08:36:30;;;;;;;8.82;7.72;;;;;;;22.64;52.37;94112.41;5035254;28;20033;-72
2022/06/09 08:38:55;;;;;;;10.85;7.28;;;;;;;22.63;53.23;94110.78;5053269;28;20510;-72
2022/06/09 08:41:35;;;;;;;8.40;7.60;;;;;;;22.72;53.46;94108.66;5052909;28;20079;-71
2022/06/09 08:44:11;;;;;;;8.33;6.33;;;;;;;22.77;52.51;94105.38;5035159;28;20033;-72
2022/06/09 08:46:39;;;;;;;7.22;6.53;;;;;;;22.70;53.09;94105.41;5035059;28;20037;-72
2022/06/09 08:49:05;;;;;;;9.65;7.97;;;;;;;22.75;51.81;94116.97;5053106;28;20039;-72
2022/06/09 08:51:37;;;;;;;7.57;6.82;;;;;;;22.77;52.51;94108.81;5018568;28;20033;-72
2022/06/09 08:54:14;;;;;;;8.50;7.70;;;;;;;22.86;50.57;94101.41;5035292;28;20417;-72
2022/06/09 08:56:40;;;;;;;8.45;7.30;;;;;;;22.93;52.46;94091.56;5035605;28;20037;-71
2022/06/09 08:59:13;;;;;;;8.68;6.55;;;;;;;23.02;53.24;94087.59;5018595;28;20032;-72
2022/06/09 09:01:46;;;;;;;6.80;6.00;;;;;;;23.23;53.26;94090.81;5035504;28;20112;-72
2022/06/09 09:04:23;;;;;;;6.28;5.68;;;;;;;23.38;52.09;94080.66;5034926;28;20103;-72
2022/06/09 09:06:52;;;;;;;5.95;5.38;;;;;;;23.47;50.86;94075.84;5052487;28;20029;-72
2022/06/09 09:09:23;;;;;;;6.60;5.95;;;;;;;23.54;50.01;94069.44;5052804;28;20490;-72
2022/06/09 09:11:57;;;;;;;8.45;6.28;;;;;;;23.62;49.37;94063.81;5034672;28;20065;-72
2022/06/09 09:14:33;;;;;;;10.27;7.05;;;;;;;23.61;48.91;94064.84;5034527;28;20490;-72
2022/06/09 09:17:26;;;;;;;6.63;5.93;;;;;;;23.68;49.55;94069.22;5017498;28;20064;-72
2022/06/09 09:20:14;;;;;;;7.90;4.93;;;;;;;23.87;50.03;94073.47;5052279;28;20040;-71
2022/06/09 09:22:55;;;;;;;5.72;4.88;;;;;;;23.82;48.49;94058.25;5034417;28;20505;-71
2022/06/09 09:25:37;;;;;;;7.82;5.50;;;;;;;23.74;48.86;94055.13;5034198;28;20294;-72
2022/06/09 09:28:22;;;;;;;6.57;5.18;;;;;;;23.78;49.00;94058.94;5052243;28;20040;-71
2022/06/09 09:31:08;;;;;;;5.78;5.00;;;;;;;23.72;49.14;94054.53;5035389;28;20100;-72
2022/06/09 09:33:34;;;;;;;6.15;4.93;;;;;;;23.67;48.83;94046.41;5052118;28;20041;-71
2022/06/09 09:36:06;;;;;;;7.65;5.40;;;;;;;23.57;47.64;94042.47;5017783;28;20183;-72
2022/06/09 09:38:38;;;;;;;6.82;5.30;;;;;;;23.56;47.53;94043.50;5034338;28;20064;-72
2022/06/09 09:41:05;;;;;;;5.55;4.90;;;;;;;23.60;49.48;94035.91;5034417;28;20037;-72
2022/06/09 09:43:36;;;;;;;7.80;4.57;;;;;;;23.68;49.07;94038.25;5051912;28;20079;-72
2022/06/09 09:46:01;;;;;;;5.03;4.53;;;;;;;23.73;48.93;94027.78;5017572;28;20037;-72
2022/06/09 09:48:36;;;;;;;5.80;4.60;;;;;;;23.78;50.02;94035.06;5017441;28;20036;-72
2022/06/09 09:51:13;;;;;;;7.70;4.57;;;;;;;23.84;50.09;94036.78;5034555;28;20033;-71
2022/06/09 09:53:39;;;;;;;6.15;4.43;;;;;;;23.81;49.99;94022.16;5034083;28;20063;-72
2022/06/09 09:56:20;;;;;;;5.32;4.60;;;;;;;23.92;47.52;94028.50;5033783;28;20090;-72
2022/06/09 09:58:48;;;;;;;6.07;4.70;;;;;;;23.89;47.03;94030.81;5033848;28;20025;-72
2022/06/09 10:01:17;;;;;;;4.82;3.70;;;;;;;23.99;47.32;94023.94;5051462;28;20655;-72
2022/06/09 10:09:39;;;;;;;5.78;4.53;;;;;;;24.01;46.65;94016.53;5036518;28;20129;-72
2022/06/09 10:12:08;;;;;;;6.93;4.18;;;;;;;24.03;46.61;94011.00;5033251;28;20067;-72
2022/06/09 10:14:38;;;;;;;5.80;4.10;;;;;;;24.03;46.56;94009.16;5051022;28;20484;-72
2022/06/09 10:17:28;;;;;;;4.30;3.90;;;;;;;24.06;46.31;94006.03;5033787;28;20032;-71
2022/06/09 10:20:04;;;;;;;6.22;4.05;;;;;;;23.94;45.91;93991.97;5034822;28;20036;-72
2022/06/09 10:22:32;;;;;;;4.35;3.70;;;;;;;23.91;47.01;93997.75;5034210;28;20036;-72
2022/06/09 10:25:19;;;;;;;4.00;3.50;;;;;;;23.89;47.56;93991.84;5016885;28;20044;-71
2022/06/09 10:27:45;;;;;;;4.45;3.60;;;;;;;24.02;45.34;93996.13;5035928;28;20192;-72
2022/06/09 10:30:14;;;;;;;5.25;3.50;;;;;;;23.98;47.29;93990.47;5050973;28;20574;-72
2022/06/09 10:32:48;;;;;;;6.43;3.67;;;;;;;23.90;47.41;93982.84;5033305;28;20061;-72
2022/06/09 10:35:34;;;;;;;4.30;3.10;;;;;;;24.00;47.28;93983.09;5033617;28;20498;-72
2022/06/09 10:38:25;;;;;;;3.60;3.10;;;;;;;24.13;46.71;93982.06;5016620;28;20549;-71
2022/06/09 10:40:56;;;;;;;4.07;3.08;;;;;;;24.27;45.53;93987.94;5034885;28;20053;-72
2022/06/09 10:43:35;;;;;;;3.95;3.10;;;;;;;24.35;45.52;93979.66;5033191;28;20033;-72
2022/06/09 10:46:15;;;;;;;4.05;3.20;;;;;;;24.46;45.16;93981.50;5016462;28;20510;-72
2022/06/09 10:57:49;;;;;;;4.32;2.85;;;;;;;24.45;45.17;93971.13;5035631;28;20044;-72
2022/06/09 11:00:18;;;;;;;3.17;2.80;;;;;;;24.43;42.03;93960.75;5034231;28;20041;-72
2022/06/09 11:02:48;;;;;;;6.28;2.78;;;;;;;24.39;43.31;93956.91;5016550;28;20406;-72
2022/06/09 11:05:14;;;;;;;4.90;2.47;;;;;;;24.35;42.93;93953.09;5033304;28;20033;-72
2022/06/09 11:08:10;;;;;;;4.55;2.60;;;;;;;24.30;41.33;93958.28;5032750;28;20505;-72
2022/06/09 11:11:14;;;;;;;3.92;2.45;;;;;;;24.24;41.24;93956.59;5050621;28;20465;-71
2022/06/09 11:13:51;;;;;;;3.08;2.78;;;;;;;24.24;43.21;93959.22;5031588;28;20193;-72
2022/06/09 11:16:44;;;;;;;4.30;2.88;;;;;;;24.24;43.46;93953.94;5033146;28;20036;-72
2022/06/09 11:19:25;;;;;;;5.40;3.08;;;;;;;24.35;46.33;93942.50;5050901;28;20037;-72
2022/06/09 11:22:15;;;;;;;4.10;2.90;;;;;;;24.48;43.43;93949.41;5032698;28;20108;-72
2022/06/09 11:24:52;;;;;;;5.18;2.55;;;;;;;24.58;44.71;93946.16;5050383;28;20040;-72
2022/06/09 11:27:33;;;;;;;4.28;3.30;;;;;;;24.62;44.92;93939.34;5033491;28;20159;-72
2022/06/09 11:30:19;;;;;;;3.42;2.70;;;;;;;24.78;42.38;93943.91;5050470;28;20597;-72
2022/06/09 11:33:07;;;;;;;3.65;2.67;;;;;;;24.85;43.60;93941.09;5049792;28;20112;-72
2022/06/09 11:35:55;;;;;;;3.28;2.50;;;;;;;24.87;42.33;93921.25;5050309;28;20418;-72
2022/06/09 11:38:33;;;;;;;4.78;2.88;;;;;;;24.99;44.60;93923.88;5017099;28;20036;-72
2022/06/09 11:41:08;;;;;;;3.47;3.00;;;;;;;25.01;45.76;93913.00;5035426;28;20037;-72
2022/06/09 11:44:05;;;;;;;3.75;2.65;;;;;;;25.08;43.80;93905.69;5037139;28;20025;-72
2022/06/09 11:46:41;;;;;;;4.22;2.88;;;;;;;25.13;42.68;93908.41;5053917;28;20037;-72
2022/06/09 11:49:12;;;;;;;4.50;3.20;;;;;;;25.08;42.89;93903.03;5052336;28;20029;-72
2022/06/09 11:51:37;;;;;;;4.85;2.90;;;;;;;25.06;44.69;93905.13;5019938;28;20106;-72
2022/06/09 11:54:05;;;;;;;4.00;2.92;;;;;;;25.13;42.55;93895.13;5019524;28;20487;-72
2022/06/09 11:56:40;;;;;;;3.90;2.63;;;;;;;25.09;43.53;93902.00;5052564;28;20036;-72
2022/06/09 11:59:11;;;;;;;3.58;2.63;;;;;;;24.92;42.30;93896.63;5036821;28;20036;-72
2022/06/09 12:01:39;;;;;;;5.35;2.65;;;;;;;24.73;42.59;93893.34;5035830;28;20033;-72
2022/06/09 12:04:40;;;;;;;3.78;2.65;;;;;;;24.70;43.98;93886.66;5035865;28;20025;-72
2022/06/09 12:07:29;;;;;;;4.00;2.72;;;;;;;24.76;43.55;93884.91;5031263;28;20095;-72
2022/06/09 12:10:00;;;;;;;4.28;3.03;;;;;;;24.81;44.58;93889.53;5039392;28;20048;-71
2022/06/09 12:12:34;;;;;;;3.55;2.80;;;;;;;24.86;42.15;93885.13;5053205;28;20048;-72
2022/06/09 12:15:25;;;;;;;3.53;2.83;;;;;;;24.69;43.57;93884.28;5036300;28;20056;-72
2022/06/09 12:18:08;;;;;;;4.82;2.90;;;;;;;24.71;43.43;93879.50;5035792;28;20075;-72
2022/06/09 12:20:35;;;;;;;7.53;3.03;;;;;;;24.70;41.97;93891.97;5035946;28;20025;-72
2022/06/09 12:23:04;;;;;;;5.85;2.90;;;;;;;24.67;41.93;93878.38;5035506;28;20048;-72
2022/06/09 12:25:33;;;;;;;3.80;2.72;;;;;;;24.64;41.81;93877.00;5051987;28;20029;-72
2022/06/09 12:27:59;;;;;;;5.53;3.42;;;;;;;24.65;43.79;93865.34;5019014;28;20029;-72
2022/06/09 12:30:33;;;;;;;4.85;2.60;;;;;;;24.68;44.27;93870.19;5035432;28;20037;-73
2022/06/09 12:33:11;;;;;;;3.80;2.80;;;;;;;24.68;42.68;93872.00;5035179;28;20036;-72
2022/06/09 12:35:57;;;;;;;5.35;2.63;;;;;;;24.65;42.60;93867.19;5053068;28;20029;-71
2022/06/09 12:38:30;;;;;;;5.07;2.55;;;;;;;24.80;42.56;93875.44;5051920;28;20029;-72
2022/06/09 12:40:59;;;;;;;3.13;2.33;;;;;;;24.82;41.66;93873.34;5053047;28;20491;-72
2022/06/09 12:43:34;;;;;;;3.33;2.35;;;;;;;24.91;41.18;93869.28;5035333;28;20575;-72
2022/06/09 12:46:04;;;;;;;2.95;2.30;;;;;;;25.01;41.16;93873.16;5035361;28;20486;-72
2022/06/09 12:48:30;;;;;;;;;;;;;;;25.04;41.16;93875.31;5053490;28;20029;-72
2022/06/09 12:50:55;;;;;;;4.20;2.55;;;;;;;25.06;39.76;93878.56;5034884;28;19924;-71
2022/06/09 12:53:25;;;;;;;3.60;2.75;;;;;;;25.07;41.57;93878.31;5018438;28;20056;-72
2022/06/09 12:55:54;;;;;;;4.80;2.60;;;;;;;25.14;40.07;93876.34;5034949;28;20255;-72
2022/06/09 12:58:30;;;;;;;5.13;3.10;;;;;;;25.19;40.54;93867.66;5035029;28;20116;-72
2022/06/09 13:01:02;;;;;;;2.63;2.40;;;;;;;25.27;39.24;93875.25;5035973;28;20029;-72
2022/06/09 13:03:51;;;;;;;3.97;2.40;;;;;;;25.23;39.95;93874.09;5035025;28;20518;-71
2022/06/09 13:06:32;;;;;;;2.90;2.60;;;;;;;25.17;39.88;93891.00;5051284;28;20417;-72
2022/06/09 13:09:17;;;;;;;4.47;2.90;;;;;;;25.15;40.18;93893.09;5035060;28;20087;-72
2022/06/09 13:14:29;;;;;;;5.68;3.70;;;;;;;25.07;41.44;93893.44;5037407;28;20110;-72
2022/06/09 13:16:58;;;;;;;8.27;3.95;;;;;;;24.98;41.48;93908.97;5018121;28;20494;-72
2022/06/09 13:19:25;;;;;;;6.47;3.88;;;;;;;24.53;41.81;93907.84;5034141;28;20029;-72
2022/06/09 13:21:50;;;;;;;6.95;3.88;;;;;;;24.51;42.23;93904.63;5034488;28;20060;-72
2022/06/09 13:24:24;;;;;;;5.40;3.50;;;;;;;24.42;42.09;93907.84;5051002;28;20488;-72
2022/06/09 13:26:50;;;;;;;5.32;3.35;;;;;;;24.31;41.80;93902.31;5034379;28;20037;-72
2022/06/09 13:29:29;;;;;;;7.97;3.75;;;;;;;24.24;42.06;93906.16;5050956;28;20033;-72
2022/06/09 13:32:16;;;;;;;4.35;3.70;;;;;;;24.23;42.39;93910.66;5052280;28;20029;-72
2022/06/09 13:34:42;;;;;;;6.32;3.58;;;;;;;24.21;42.17;93909.25;5017508;28;20506;-72
2022/06/09 13:37:17;;;;;;;5.68;3.20;;;;;;;24.09;42.22;93910.09;5034137;28;20036;-72